createdAt,value
2018-03-24T00:00:00.254Z,7.84
2018-03-24T00:02:27.886Z,7.81
2018-03-24T00:04:55.320Z,7.81
2018-03-24T00:07:22.738Z,7.79
2018-03-24T00:09:50.145Z,7.76
2018-03-24T00:12:17.561Z,7.77
2018-03-24T00:14:44.977Z,7.75
2018-03-24T00:17:12.370Z,7.74
2018-03-24T00:19:39.795Z,7.75
2018-03-24T00:22:07.201Z,7.77
2018-03-24T00:24:34.622Z,7.79
2018-03-24T00:27:02.043Z,7.83
2018-03-24T00:29:29.456Z,7.83
2018-03-24T00:31:56.861Z,7.80
2018-03-24T00:34:24.276Z,7.79
2018-03-24T00:36:51.678Z,7.76
2018-03-24T00:39:19.100Z,7.74
2018-03-24T00:41:46.514Z,7.69
2018-03-24T00:44:13.942Z,7.61
2018-03-24T00:46:41.345Z,7.53
2018-03-24T00:49:08.759Z,7.47
2018-03-24T00:51:36.173Z,7.42
2018-03-24T00:54:03.590Z,7.34
2018-03-24T00:56:30.998Z,7.26
2018-03-24T00:58:58.433Z,7.20
2018-03-24T01:01:25.865Z,7.14
2018-03-24T01:03:53.294Z,7.09
2018-03-24T01:06:20.771Z,7.08
2018-03-24T01:08:48.261Z,7.00
2018-03-24T01:11:15.797Z,6.93
2018-03-24T01:13:43.201Z,6.89
2018-03-24T01:16:10.613Z,6.85
2018-03-24T01:18:38.041Z,6.81
2018-03-24T01:21:05.572Z,6.77
2018-03-24T01:23:32.978Z,6.72
2018-03-24T01:26:00.386Z,6.67
2018-03-24T01:28:27.815Z,6.61
2018-03-24T01:30:55.230Z,6.56
2018-03-24T01:33:22.653Z,6.52
2018-03-24T01:35:50.194Z,6.48
2018-03-24T01:38:17.676Z,6.45
2018-03-24T01:40:45.133Z,6.39
2018-03-24T01:43:12.563Z,6.37
2018-03-24T01:45:39.974Z,6.31
2018-03-24T01:48:07.372Z,6.30
2018-03-24T01:50:34.899Z,6.27
2018-03-24T01:53:02.301Z,6.23
2018-03-24T01:55:29.706Z,6.19
2018-03-24T01:57:57.126Z,6.14
2018-03-24T02:00:24.834Z,6.08
2018-03-24T02:02:52.235Z,6.03
2018-03-24T02:05:19.634Z,5.97
2018-03-24T02:07:47.046Z,5.93
2018-03-24T02:10:14.454Z,5.88
2018-03-24T02:12:41.874Z,5.81
2018-03-24T02:15:09.271Z,5.77
2018-03-24T02:17:37.054Z,5.73
2018-03-24T02:20:04.460Z,5.69
2018-03-24T02:22:31.869Z,5.64
2018-03-24T02:24:59.741Z,5.59
2018-03-24T02:27:27.156Z,5.54
2018-03-24T02:29:54.596Z,5.46
2018-03-24T02:32:22.011Z,5.40
2018-03-24T02:34:49.534Z,5.34
2018-03-24T02:37:17.088Z,5.27
2018-03-24T02:39:44.509Z,5.21
2018-03-24T02:42:11.990Z,5.21
2018-03-24T02:44:39.431Z,5.21
2018-03-24T02:47:06.870Z,5.21
2018-03-24T02:49:34.266Z,5.24
2018-03-24T02:52:01.698Z,5.26
2018-03-24T02:54:29.122Z,5.22
2018-03-24T02:56:56.544Z,5.20
2018-03-24T02:59:23.966Z,5.20
2018-03-24T03:01:51.377Z,5.21
2018-03-24T03:04:18.788Z,5.19
2018-03-24T03:06:46.200Z,5.12
2018-03-24T03:09:13.614Z,5.09
2018-03-24T03:11:41.145Z,5.05
2018-03-24T03:14:08.544Z,4.98
2018-03-24T03:16:35.950Z,4.93
2018-03-24T03:19:03.377Z,4.94
2018-03-24T03:21:51.558Z,4.95
2018-03-24T03:24:18.974Z,4.96
2018-03-24T03:26:46.381Z,4.91
2018-03-24T03:29:13.805Z,4.88
2018-03-24T03:31:56.418Z,4.86
2018-03-24T03:34:23.840Z,4.83
2018-03-24T03:36:51.245Z,4.81
2018-03-24T03:39:18.662Z,4.78
2018-03-24T03:41:46.155Z,4.76
2018-03-24T03:44:13.579Z,4.77
2018-03-24T03:46:40.998Z,4.77
2018-03-24T03:49:09.025Z,4.77
2018-03-24T03:51:36.430Z,4.73
2018-03-24T03:54:03.849Z,4.71
2018-03-24T03:56:31.283Z,4.70
2018-03-24T03:58:58.694Z,4.71
2018-03-24T04:01:26.099Z,4.69
2018-03-24T04:03:53.866Z,4.68
2018-03-24T04:06:21.270Z,4.67
2018-03-24T04:08:48.670Z,4.65
2018-03-24T04:11:16.094Z,4.64
2018-03-24T04:13:43.511Z,4.62
2018-03-24T04:16:10.919Z,4.60
2018-03-24T04:18:38.342Z,4.56
2018-03-24T04:21:05.746Z,4.51
2018-03-24T04:23:33.153Z,4.45
2018-03-24T04:26:00.573Z,4.41
2018-03-24T04:28:27.994Z,4.38
2018-03-24T04:30:55.459Z,4.37
2018-03-24T04:33:22.916Z,4.35
2018-03-24T04:35:50.440Z,4.33
2018-03-24T04:38:18.094Z,4.28
2018-03-24T04:40:45.534Z,4.22
2018-03-24T04:43:12.937Z,4.16
2018-03-24T04:45:40.388Z,4.12
2018-03-24T04:48:07.793Z,4.08
2018-03-24T04:50:35.211Z,4.02
2018-03-24T04:53:02.611Z,3.96
2018-03-24T04:55:30.066Z,3.91
2018-03-24T04:57:57.482Z,3.85
2018-03-24T05:00:24.890Z,3.83
2018-03-24T05:02:52.341Z,3.80
2018-03-24T05:05:19.808Z,3.75
2018-03-24T05:07:48.182Z,3.64
2018-03-24T05:10:15.609Z,3.51
2018-03-24T05:12:43.038Z,3.45
2018-03-24T05:15:10.463Z,3.43
2018-03-24T05:17:37.896Z,3.41
2018-03-24T05:20:05.315Z,3.42
2018-03-24T05:22:32.718Z,3.43
2018-03-24T05:25:00.149Z,3.43
2018-03-24T05:27:27.569Z,3.43
2018-03-24T05:29:55.009Z,3.42
2018-03-24T05:32:22.472Z,3.41
2018-03-24T05:34:49.891Z,3.40
2018-03-24T05:37:17.374Z,3.36
2018-03-24T05:39:44.846Z,3.34
2018-03-24T05:42:12.350Z,3.35
2018-03-24T05:44:39.809Z,3.38
2018-03-24T05:47:07.373Z,3.37
2018-03-24T05:49:34.787Z,3.37
2018-03-24T05:52:02.193Z,3.34
2018-03-24T05:54:29.605Z,3.37
2018-03-24T05:56:57.025Z,3.40
2018-03-24T05:59:24.550Z,3.39
2018-03-24T06:01:51.947Z,3.39
2018-03-24T06:04:19.360Z,3.39
2018-03-24T06:06:46.768Z,3.43
2018-03-24T06:09:14.317Z,3.50
2018-03-24T06:11:41.721Z,3.56
2018-03-24T06:14:09.130Z,3.62
2018-03-24T06:16:36.540Z,3.67
2018-03-24T06:19:03.939Z,3.69
2018-03-24T06:21:31.366Z,3.70
2018-03-24T06:23:58.791Z,3.75
2018-03-24T06:26:26.246Z,3.81
2018-03-24T06:28:53.625Z,3.90
2018-03-24T06:31:21.404Z,3.97
2018-03-24T06:33:48.863Z,4.07
2018-03-24T06:36:17.302Z,4.19
2018-03-24T06:38:44.729Z,4.35
2018-03-24T06:41:12.160Z,4.57
2018-03-24T06:43:39.568Z,4.75
2018-03-24T06:46:07.159Z,5.04
2018-03-24T06:48:34.538Z,5.32
2018-03-24T06:51:01.949Z,5.74
2018-03-24T06:53:29.369Z,6.29
2018-03-24T06:55:56.773Z,6.81
2018-03-24T06:58:24.190Z,7.25
2018-03-24T07:00:51.606Z,7.93
2018-03-24T07:03:19.022Z,8.63
2018-03-24T07:05:46.438Z,9.43
2018-03-24T07:08:13.869Z,9.76
2018-03-24T07:10:41.266Z,9.80
2018-03-24T07:13:08.686Z,9.85
2018-03-24T07:15:36.102Z,10.04
2018-03-24T07:18:04.097Z,10.21
2018-03-24T07:20:31.475Z,10.20
2018-03-24T07:22:58.904Z,10.16
2018-03-24T07:25:26.325Z,10.17
2018-03-24T07:27:53.749Z,10.11
2018-03-24T07:30:21.172Z,10.03
2018-03-24T07:32:48.591Z,10.03
2018-03-24T07:35:16.001Z,10.16
2018-03-24T07:37:43.765Z,10.26
2018-03-24T07:40:11.181Z,10.46
2018-03-24T07:42:38.589Z,10.76
2018-03-24T07:45:06.022Z,10.88
2018-03-24T07:47:33.493Z,11.03
2018-03-24T07:50:00.865Z,11.47
2018-03-24T07:52:28.279Z,12.05
2018-03-24T07:54:55.702Z,12.22
2018-03-24T07:57:23.113Z,12.32
2018-03-24T07:59:50.801Z,12.33
2018-03-24T08:02:18.218Z,12.67
2018-03-24T08:04:45.625Z,12.80
2018-03-24T08:07:13.056Z,13.05
2018-03-24T08:09:40.529Z,13.11
2018-03-24T08:12:07.888Z,13.25
2018-03-24T08:14:35.324Z,13.62
2018-03-24T08:17:02.745Z,13.89
2018-03-24T08:19:30.159Z,13.98
2018-03-24T08:21:57.565Z,14.23
2018-03-24T08:24:25.010Z,14.34
2018-03-24T08:26:52.566Z,14.17
2018-03-24T08:29:20.016Z,14.18
2018-03-24T08:31:47.416Z,14.57
2018-03-24T08:34:15.138Z,14.63
2018-03-24T08:36:42.545Z,14.78
2018-03-24T08:39:09.950Z,14.41
2018-03-24T08:41:37.378Z,14.38
2018-03-24T08:44:04.793Z,14.35
2018-03-24T08:46:32.202Z,14.64
2018-03-24T08:48:59.637Z,14.72
2018-03-24T08:51:27.063Z,14.79
2018-03-24T08:53:54.461Z,14.48
2018-03-24T08:56:21.893Z,14.37
2018-03-24T08:58:49.289Z,14.52
2018-03-24T09:01:16.712Z,14.16
2018-03-24T09:03:44.141Z,13.98
2018-03-24T09:06:11.549Z,14.07
2018-03-24T09:08:39.121Z,14.04
2018-03-24T09:11:06.538Z,13.91
2018-03-24T09:13:33.941Z,13.97
2018-03-24T09:16:01.360Z,13.95
2018-03-24T09:18:28.775Z,13.92
2018-03-24T09:20:56.200Z,14.04
2018-03-24T09:23:23.618Z,13.88
2018-03-24T09:25:51.049Z,13.75
2018-03-24T09:28:18.488Z,13.94
2018-03-24T09:30:45.893Z,13.85
2018-03-24T09:33:13.301Z,13.75
2018-03-24T09:35:40.722Z,13.13
2018-03-24T09:38:08.143Z,12.88
2018-03-24T09:40:35.565Z,12.71
2018-03-24T09:43:02.978Z,12.82
2018-03-24T09:45:30.393Z,12.71
2018-03-24T09:47:57.798Z,12.58
2018-03-24T09:50:25.222Z,12.61
2018-03-24T09:52:52.770Z,12.52
2018-03-24T09:55:20.051Z,12.64
2018-03-24T09:57:47.458Z,12.83
2018-03-24T10:00:14.895Z,12.92
2018-03-24T10:02:42.297Z,12.51
2018-03-24T10:05:09.714Z,12.50
2018-03-24T10:07:37.133Z,12.62
2018-03-24T10:10:04.541Z,12.77
2018-03-24T10:12:31.974Z,12.51
2018-03-24T10:14:59.384Z,12.46
2018-03-24T10:17:26.816Z,12.44
2018-03-24T10:19:54.222Z,12.36
2018-03-24T10:22:44.321Z,12.48
2018-03-24T10:25:11.740Z,12.38
2018-03-24T10:27:39.441Z,12.49
2018-03-24T10:30:06.853Z,12.68
2018-03-24T10:32:34.257Z,12.59
2018-03-24T10:35:07.222Z,12.39
2018-03-24T10:37:40.389Z,12.46
2018-03-24T10:40:07.818Z,12.42
2018-03-24T10:42:35.228Z,12.48
2018-03-24T10:45:02.681Z,12.23
2018-03-24T10:47:30.087Z,12.33
2018-03-24T10:49:57.509Z,12.41
2018-03-24T10:52:24.951Z,12.49
2018-03-24T10:54:52.354Z,12.50
2018-03-24T10:57:19.764Z,12.45
2018-03-24T10:59:47.180Z,12.45
2018-03-24T11:02:14.597Z,12.51
2018-03-24T11:04:42.953Z,12.38
2018-03-24T11:07:10.375Z,12.41
2018-03-24T11:09:37.818Z,12.17
2018-03-24T11:12:05.354Z,12.04
2018-03-24T11:14:32.761Z,11.99
2018-03-24T11:17:00.185Z,11.85
2018-03-24T11:19:27.609Z,11.87
2018-03-24T11:21:55.049Z,11.75
2018-03-24T11:24:22.473Z,11.74
2018-03-24T11:26:49.901Z,11.76
2018-03-24T11:29:17.302Z,11.86
2018-03-24T11:31:44.718Z,11.83
2018-03-24T11:34:12.267Z,11.81
2018-03-24T11:36:39.678Z,11.76
2018-03-24T11:39:07.135Z,11.66
2018-03-24T11:41:34.550Z,11.87
2018-03-24T11:44:01.981Z,11.68
2018-03-24T11:46:29.428Z,11.70
2018-03-24T11:48:56.858Z,11.73
2018-03-24T11:51:24.288Z,11.70
2018-03-24T11:53:51.698Z,11.70
2018-03-24T11:56:19.262Z,11.73
2018-03-24T11:58:46.720Z,11.83
2018-03-24T12:01:14.255Z,11.74
2018-03-24T12:03:41.677Z,11.61
2018-03-24T12:06:09.123Z,11.60
2018-03-24T12:08:36.542Z,11.59
2018-03-24T12:11:03.954Z,11.61
2018-03-24T12:13:31.373Z,11.69
2018-03-24T12:15:58.813Z,11.71
2018-03-24T12:18:26.226Z,11.78
2018-03-24T12:20:53.649Z,11.77
2018-03-24T12:23:21.062Z,11.72
2018-03-24T12:25:48.762Z,11.78
2018-03-24T12:28:16.194Z,11.75
2018-03-24T12:30:43.606Z,11.80
2018-03-24T12:33:11.035Z,11.71
2018-03-24T12:35:38.453Z,11.86
2018-03-24T12:38:05.887Z,11.94
2018-03-24T12:40:33.305Z,11.97
2018-03-24T12:43:00.733Z,12.12
2018-03-24T12:45:28.145Z,12.15
2018-03-24T12:47:55.574Z,12.19
2018-03-24T12:50:23.002Z,12.17
2018-03-24T12:52:50.451Z,12.05
2018-03-24T12:55:17.863Z,12.02
2018-03-24T12:57:45.305Z,12.12
2018-03-24T13:00:12.753Z,12.20
2018-03-24T13:02:40.186Z,12.21
2018-03-24T13:05:07.600Z,12.26
2018-03-24T13:07:35.022Z,12.17
2018-03-24T13:10:02.485Z,12.16
2018-03-24T13:12:29.894Z,12.20
2018-03-24T13:14:57.317Z,12.25
2018-03-24T13:17:24.722Z,12.29
2018-03-24T13:19:52.145Z,12.36
2018-03-24T13:22:19.568Z,12.37
2018-03-24T13:24:47.006Z,12.30
2018-03-24T13:27:14.418Z,12.34
2018-03-24T13:29:41.831Z,12.36
2018-03-24T13:32:09.258Z,12.40
2018-03-24T13:34:36.667Z,12.40
2018-03-24T13:37:04.101Z,12.50
2018-03-24T13:39:31.519Z,12.62
2018-03-24T13:41:58.947Z,12.72
2018-03-24T13:44:26.382Z,12.63
2018-03-24T13:46:53.811Z,12.64
2018-03-24T13:49:21.246Z,12.58
2018-03-24T13:51:48.773Z,12.64
2018-03-24T13:54:16.193Z,12.64
2018-03-24T13:56:43.613Z,12.67
2018-03-24T13:59:11.062Z,12.69
2018-03-24T14:01:38.465Z,12.66
2018-03-24T14:04:05.878Z,12.53
2018-03-24T14:06:33.300Z,12.52
2018-03-24T14:09:00.735Z,12.51
2018-03-24T14:11:28.137Z,12.35
2018-03-24T14:13:55.577Z,12.31
2018-03-24T14:16:23.013Z,12.28
2018-03-24T14:18:50.430Z,12.06
2018-03-24T14:21:17.871Z,12.08
2018-03-24T14:23:45.340Z,12.14
2018-03-24T14:26:12.722Z,12.16
2018-03-24T14:28:40.186Z,12.19
2018-03-24T14:31:07.578Z,12.06
2018-03-24T14:33:34.989Z,12.10
2018-03-24T14:36:02.393Z,12.10
2018-03-24T14:38:29.831Z,12.16
2018-03-24T14:40:57.233Z,12.13
2018-03-24T14:43:24.653Z,12.09
2018-03-24T14:45:52.097Z,12.01
2018-03-24T14:48:19.509Z,12.00
2018-03-24T14:50:46.941Z,11.90
2018-03-24T14:53:14.357Z,11.95
2018-03-24T14:55:41.790Z,12.09
2018-03-24T14:58:09.221Z,12.10
2018-03-24T15:00:36.650Z,12.15
2018-03-24T15:03:04.081Z,12.19
2018-03-24T15:05:31.485Z,12.22
2018-03-24T15:07:58.925Z,12.10
2018-03-24T15:10:26.325Z,11.97
2018-03-24T15:12:53.763Z,12.02
2018-03-24T15:15:21.165Z,11.98
2018-03-24T15:17:48.574Z,11.94
2018-03-24T15:20:16.006Z,11.95
2018-03-24T15:22:43.448Z,11.97
2018-03-24T15:25:10.857Z,12.06
2018-03-24T15:27:38.258Z,11.96
2018-03-24T15:30:17.374Z,12.02
2018-03-24T15:32:50.693Z,11.90
2018-03-24T15:35:32.712Z,11.78
2018-03-24T15:38:00.118Z,11.70
2018-03-24T15:40:27.549Z,11.71
2018-03-24T15:42:54.957Z,11.74
2018-03-24T15:45:22.394Z,11.74
2018-03-24T15:47:49.827Z,11.73
2018-03-24T15:50:17.254Z,11.71
2018-03-24T15:52:44.685Z,11.69
2018-03-24T15:55:12.093Z,11.68
2018-03-24T15:57:39.573Z,11.68
2018-03-24T16:00:06.985Z,11.68
2018-03-24T16:02:34.458Z,11.61
2018-03-24T16:05:01.878Z,11.61
2018-03-24T16:07:29.301Z,11.56
2018-03-24T16:09:56.705Z,11.55
2018-03-24T16:12:24.133Z,11.51
2018-03-24T16:14:51.553Z,11.47
2018-03-24T16:17:18.960Z,11.46
2018-03-24T16:19:46.392Z,11.41
2018-03-24T16:22:13.821Z,11.37
2018-03-24T16:24:41.246Z,11.33
2018-03-24T16:27:08.653Z,11.25
2018-03-24T16:29:36.094Z,11.19
2018-03-24T16:32:03.497Z,11.16
2018-03-24T16:34:30.930Z,11.12
2018-03-24T16:36:58.358Z,11.09
2018-03-24T16:39:25.762Z,11.02
2018-03-24T16:41:53.249Z,10.98
2018-03-24T16:44:20.605Z,10.93
2018-03-24T16:46:48.057Z,10.88
2018-03-24T16:49:15.464Z,10.85
2018-03-24T16:51:42.866Z,10.79
2018-03-24T16:54:10.308Z,10.73
2018-03-24T16:56:37.725Z,10.66
2018-03-24T16:59:05.153Z,10.61
2018-03-24T17:01:32.566Z,10.57
2018-03-24T17:04:00.002Z,10.55
2018-03-24T17:06:27.406Z,10.50
2018-03-24T17:08:54.833Z,10.45
2018-03-24T17:11:22.245Z,10.41
2018-03-24T17:13:49.683Z,10.38
2018-03-24T17:16:17.112Z,10.33
2018-03-24T17:18:44.519Z,10.28
2018-03-24T17:21:11.949Z,10.20
2018-03-24T17:23:39.372Z,10.10
2018-03-24T17:26:06.803Z,10.04
2018-03-24T17:28:34.206Z,9.97
2018-03-24T17:31:01.632Z,9.92
2018-03-24T17:33:29.031Z,9.86
2018-03-24T17:35:56.442Z,9.81
2018-03-24T17:38:23.861Z,9.76
2018-03-24T17:40:51.286Z,9.72
2018-03-24T17:43:18.704Z,9.66
2018-03-24T17:45:46.126Z,9.60
2018-03-24T17:48:13.545Z,9.49
2018-03-24T17:50:40.950Z,9.46
2018-03-24T17:53:08.353Z,9.40
2018-03-24T17:55:35.757Z,9.33
2018-03-24T17:58:03.174Z,9.27
2018-03-24T18:00:30.582Z,9.17
2018-03-24T18:02:58.009Z,9.10
2018-03-24T18:05:25.431Z,9.03
2018-03-24T18:07:52.880Z,8.97
2018-03-24T18:10:20.326Z,8.89
2018-03-24T18:12:47.781Z,8.79
2018-03-24T18:15:15.182Z,8.67
2018-03-24T18:17:42.597Z,8.60
2018-03-24T18:20:10.001Z,8.52
2018-03-24T18:22:37.421Z,8.46
2018-03-24T18:25:04.830Z,8.40
2018-03-24T18:27:32.358Z,8.35
2018-03-24T18:29:59.805Z,8.31
2018-03-24T18:32:27.170Z,8.29
2018-03-24T18:34:54.590Z,8.25
2018-03-24T18:37:21.986Z,8.17
2018-03-24T18:39:49.430Z,8.19
2018-03-24T18:42:16.853Z,8.16
2018-03-24T18:44:44.254Z,8.14
2018-03-24T18:47:11.683Z,8.11
2018-03-24T18:49:39.141Z,8.06
2018-03-24T18:52:06.554Z,7.95
2018-03-24T18:54:33.949Z,7.96
2018-03-24T18:57:01.482Z,7.96
2018-03-24T18:59:28.881Z,7.95
2018-03-24T19:01:56.289Z,7.95
2018-03-24T19:04:23.746Z,7.95
2018-03-24T19:06:51.163Z,7.94
2018-03-24T19:09:18.576Z,7.94
2018-03-24T19:11:46.017Z,7.93
2018-03-24T19:14:13.412Z,7.93
2018-03-24T19:16:40.833Z,7.88
2018-03-24T19:19:09.775Z,7.84
2018-03-24T19:21:37.220Z,7.80
2018-03-24T19:24:04.632Z,7.74
2018-03-24T19:26:32.042Z,7.66
2018-03-24T19:28:59.447Z,7.56
2018-03-24T19:31:26.899Z,7.50
2018-03-24T19:33:54.267Z,7.39
2018-03-24T19:36:21.679Z,7.36
2018-03-24T19:38:49.084Z,7.29
2018-03-24T19:41:16.514Z,7.23
2018-03-24T19:43:43.921Z,7.17
2018-03-24T19:46:11.347Z,7.10
2018-03-24T19:48:38.746Z,7.04
2018-03-24T19:51:06.191Z,6.99
2018-03-24T19:53:33.617Z,6.92
2018-03-24T19:56:01.039Z,6.85
2018-03-24T19:58:28.443Z,6.77
2018-03-24T20:00:55.860Z,6.69
2018-03-24T20:03:23.309Z,6.62
2018-03-24T20:05:50.685Z,6.55
2018-03-24T20:08:18.099Z,6.52
2018-03-24T20:10:45.535Z,6.47
2018-03-24T20:13:12.938Z,6.41
2018-03-24T20:15:40.382Z,6.36
2018-03-24T20:18:07.784Z,6.31
2018-03-24T20:20:35.206Z,6.24
2018-03-24T20:23:02.613Z,6.17
2018-03-24T20:25:30.018Z,6.11
2018-03-24T20:27:57.507Z,6.06
2018-03-24T20:30:24.892Z,6.03
2018-03-24T20:32:52.397Z,6.00
2018-03-24T20:35:19.979Z,5.95
2018-03-24T20:37:47.477Z,5.90
2018-03-24T20:40:14.878Z,5.85
2018-03-24T20:42:42.311Z,5.78
2018-03-24T20:45:09.740Z,5.71
2018-03-24T20:47:37.158Z,5.64
2018-03-24T20:50:04.564Z,5.56
2018-03-24T20:52:31.991Z,5.51
2018-03-24T20:54:59.385Z,5.45
2018-03-24T20:57:26.846Z,5.39
2018-03-24T20:59:54.286Z,5.37
2018-03-24T21:02:21.697Z,5.35
2018-03-24T21:04:49.115Z,5.31
2018-03-24T21:07:16.557Z,5.28
2018-03-24T21:09:43.959Z,5.25
2018-03-24T21:12:11.550Z,5.21
2018-03-24T21:14:38.957Z,5.18
2018-03-24T21:17:06.382Z,5.14
2018-03-24T21:19:33.786Z,5.09
2018-03-24T21:22:01.201Z,5.06
2018-03-24T21:24:28.609Z,5.03
2018-03-24T21:26:56.188Z,4.99
2018-03-24T21:29:23.786Z,4.95
2018-03-24T21:31:51.278Z,4.90
2018-03-24T21:34:18.685Z,4.86
2018-03-24T21:36:46.125Z,4.80
2018-03-24T21:39:13.542Z,4.76
2018-03-24T21:41:40.946Z,4.73
2018-03-24T21:44:08.375Z,4.69
2018-03-24T21:46:35.798Z,4.66
2018-03-24T21:49:03.197Z,4.63
2018-03-24T21:51:30.654Z,4.60
2018-03-24T21:53:58.127Z,4.56
2018-03-24T21:56:25.552Z,4.53
2018-03-24T21:58:52.983Z,4.50
2018-03-24T22:01:20.387Z,4.48
2018-03-24T22:03:47.821Z,4.45
2018-03-24T22:06:15.331Z,4.43
2018-03-24T22:08:42.766Z,4.40
2018-03-24T22:11:10.267Z,4.34
2018-03-24T22:13:37.701Z,4.30
2018-03-24T22:16:05.117Z,4.27
2018-03-24T22:18:32.535Z,4.26
2018-03-24T22:20:59.973Z,4.21
2018-03-24T22:23:27.414Z,4.15
2018-03-24T22:25:54.841Z,4.11
2018-03-24T22:28:22.278Z,4.07
2018-03-24T22:30:49.731Z,4.05
2018-03-24T22:33:17.495Z,4.03
2018-03-24T22:35:44.913Z,3.98
2018-03-24T22:38:12.366Z,3.93
2018-03-24T22:40:39.845Z,3.88
2018-03-24T22:43:07.275Z,3.86
2018-03-24T22:45:34.677Z,3.83
2018-03-24T22:48:02.194Z,3.82
2018-03-24T22:50:29.603Z,3.79
2018-03-24T22:52:57.001Z,3.77
2018-03-24T22:55:24.453Z,3.74
2018-03-24T22:57:51.916Z,3.69
2018-03-24T23:00:19.482Z,3.68
2018-03-24T23:02:47.249Z,3.67
2018-03-24T23:05:14.658Z,3.66
2018-03-24T23:07:42.066Z,3.65
2018-03-24T23:10:09.507Z,3.64
2018-03-24T23:12:36.979Z,3.61
2018-03-24T23:15:04.410Z,3.60
2018-03-24T23:17:31.835Z,3.57
2018-03-24T23:19:59.237Z,3.54
2018-03-24T23:22:26.638Z,3.53
2018-03-24T23:24:54.049Z,3.50
2018-03-24T23:27:21.472Z,3.49
2018-03-24T23:29:48.883Z,3.47
2018-03-24T23:32:16.293Z,3.45
2018-03-24T23:34:43.697Z,3.43
2018-03-24T23:37:11.114Z,3.41
2018-03-24T23:39:38.602Z,3.40
2018-03-24T23:42:06.000Z,3.37
2018-03-24T23:44:33.397Z,3.35
2018-03-24T23:47:00.812Z,3.33
2018-03-24T23:49:28.310Z,3.30
2018-03-24T23:51:55.759Z,3.28
2018-03-24T23:54:23.463Z,3.25
2018-03-24T23:56:50.899Z,3.23
2018-03-24T23:59:18.337Z,3.20
